createdAt,value
2019-06-27T00:03:36.950Z,9
2019-06-27T00:08:39.305Z,8
2019-06-27T00:13:41.911Z,9
2019-06-27T00:18:44.519Z,9
2019-06-27T00:23:46.682Z,9
2019-06-27T00:28:49.163Z,9
2019-06-27T00:33:51.724Z,9
2019-06-27T00:38:54.075Z,9
2019-06-27T00:43:56.562Z,9
2019-06-27T00:48:59.440Z,10
2019-06-27T00:54:01.544Z,12
2019-06-27T00:59:03.940Z,11
2019-06-27T01:04:06.424Z,10
2019-06-27T01:09:08.852Z,12
2019-06-27T01:14:11.279Z,11
2019-06-27T01:19:13.795Z,11
2019-06-27T01:24:16.221Z,11
2019-06-27T01:29:18.705Z,10
2019-06-27T01:34:21.192Z,12
2019-06-27T01:39:23.666Z,11
2019-06-27T01:44:26.083Z,12
2019-06-27T01:49:28.486Z,10
2019-06-27T01:54:30.982Z,11
2019-06-27T01:59:33.550Z,11
2019-06-27T02:04:35.977Z,11
2019-06-27T02:09:38.306Z,13
2019-06-27T02:14:40.808Z,11
2019-06-27T02:19:43.236Z,11
2019-06-27T02:24:45.706Z,10
2019-06-27T02:29:48.182Z,12
2019-06-27T02:34:50.727Z,11
2019-06-27T02:39:53.147Z,12
2019-06-27T02:44:55.542Z,11
2019-06-27T02:49:57.996Z,10
2019-06-27T02:55:00.453Z,11
2019-06-27T03:00:03.054Z,10
2019-06-27T03:05:05.485Z,10
2019-06-27T03:10:07.857Z,9
2019-06-27T03:15:10.359Z,9
2019-06-27T03:20:12.756Z,9
2019-06-27T03:25:15.218Z,10
2019-06-27T03:30:17.796Z,9
2019-06-27T03:35:20.235Z,9
2019-06-27T03:40:22.645Z,9
2019-06-27T03:45:25.042Z,8
2019-06-27T03:50:27.518Z,9
2019-06-27T03:55:29.965Z,11
2019-06-27T04:00:32.428Z,11
2019-06-27T04:05:34.929Z,9
2019-06-27T04:10:37.481Z,9
2019-06-27T04:15:39.911Z,11
2019-06-27T04:20:42.293Z,9
2019-06-27T04:25:44.725Z,9
2019-06-27T04:30:47.279Z,9
2019-06-27T04:35:49.614Z,10
2019-06-27T04:40:52.086Z,9
2019-06-27T04:45:54.570Z,8
2019-06-27T04:50:56.986Z,8
2019-06-27T05:01:01.924Z,9
2019-06-27T05:06:04.360Z,7
2019-06-27T05:11:06.904Z,8
2019-06-27T05:16:09.453Z,9
2019-06-27T05:21:11.756Z,8
2019-06-27T05:26:14.462Z,9
2019-06-27T05:31:16.757Z,10
2019-06-27T05:36:19.172Z,8
2019-06-27T05:41:21.693Z,10
2019-06-27T05:46:24.153Z,9
2019-06-27T05:51:26.502Z,9
2019-06-27T05:56:28.975Z,9
2019-06-27T06:01:31.423Z,10
2019-06-27T06:06:34.007Z,11
2019-06-27T06:11:36.380Z,11
2019-06-27T06:16:38.811Z,11
2019-06-27T06:21:41.302Z,10
2019-06-27T06:26:43.707Z,11
2019-06-27T06:31:49.190Z,13
2019-06-27T06:36:48.727Z,13
2019-06-27T06:41:51.105Z,14
2019-06-27T06:46:53.549Z,13
2019-06-27T06:51:56.030Z,13
2019-06-27T06:56:58.474Z,14
2019-06-27T07:02:01.022Z,11
2019-06-27T07:07:03.409Z,10
2019-06-27T07:12:05.886Z,8
2019-06-27T07:17:08.302Z,9
2019-06-27T07:22:10.779Z,10
2019-06-27T07:27:13.215Z,10
2019-06-27T07:32:15.696Z,8
2019-06-27T07:37:18.151Z,8
2019-06-27T07:42:20.702Z,8
2019-06-27T07:52:25.521Z,7
2019-06-27T07:57:29.804Z,9
2019-06-27T08:02:30.502Z,9
2019-06-27T08:07:32.893Z,8
2019-06-27T08:12:35.365Z,8
2019-06-27T08:17:37.852Z,9
2019-06-27T08:22:40.332Z,7
2019-06-27T08:27:43.396Z,7
2019-06-27T08:37:47.711Z,6
2019-06-27T08:42:50.210Z,7
2019-06-27T08:47:52.782Z,9
2019-06-27T08:52:55.150Z,9
2019-06-27T08:57:57.670Z,8
2019-06-27T09:03:00.134Z,8
2019-06-27T09:13:05.032Z,7
2019-06-27T09:18:07.516Z,5
2019-06-27T09:23:09.864Z,5
2019-06-27T09:28:12.336Z,5
2019-06-27T09:33:14.826Z,4
2019-06-27T09:38:17.292Z,5
2019-06-27T09:43:19.801Z,5
2019-06-27T09:48:22.181Z,4
2019-06-27T09:53:24.689Z,3
2019-06-27T09:58:27.091Z,2
2019-06-27T10:03:29.592Z,2
2019-06-27T10:08:32.017Z,3
2019-06-27T10:28:41.876Z,1
2019-06-27T10:33:44.770Z,1
2019-06-27T10:38:46.826Z,2
2019-06-27T10:43:49.324Z,1
2019-06-27T10:48:51.775Z,1
2019-06-27T10:53:54.168Z,1
2019-06-27T10:58:56.642Z,1
2019-06-27T11:03:59.226Z,1
2019-06-27T11:14:04.173Z,1
2019-06-27T11:19:06.764Z,1
2019-06-27T11:24:08.941Z,1
2019-06-27T11:29:11.406Z,1
2019-06-27T11:34:13.874Z,1
2019-06-27T11:39:16.312Z,2
2019-06-27T11:44:18.813Z,1
2019-06-27T11:49:21.322Z,1
2019-06-27T11:54:23.721Z,1
2019-06-27T11:59:26.202Z,1
2019-06-27T12:04:28.695Z,1
2019-06-27T12:09:31.215Z,1
2019-06-27T12:14:33.574Z,1
2019-06-27T12:19:36.096Z,1
2019-06-27T12:24:38.522Z,1
2019-06-27T12:29:41.041Z,1
2019-06-27T12:34:43.780Z,1
2019-06-27T12:39:45.967Z,1
2019-06-27T12:44:48.453Z,1
2019-06-27T12:50:01.938Z,1
2019-06-27T12:54:53.349Z,1
2019-06-27T12:59:57.898Z,1
2019-06-27T13:04:59.183Z,2
2019-06-27T13:10:00.853Z,1
2019-06-27T13:15:03.150Z,2
2019-06-27T13:20:05.662Z,1
2019-06-27T13:25:08.059Z,1
2019-06-27T13:30:10.591Z,1
2019-06-27T13:35:12.997Z,2
2019-06-27T13:40:15.478Z,2
2019-06-27T13:45:17.964Z,2
2019-06-27T13:50:20.468Z,2
2019-06-27T13:55:24.272Z,2
2019-06-27T14:00:25.336Z,2
2019-06-27T14:05:29.842Z,2
2019-06-27T14:10:30.214Z,2
2019-06-27T14:15:32.841Z,2
2019-06-27T14:20:35.140Z,2
2019-06-27T14:25:37.723Z,2
2019-06-27T14:30:40.095Z,2
2019-06-27T14:35:42.521Z,2
2019-06-27T14:40:45.056Z,1
2019-06-27T14:45:47.582Z,2
2019-06-27T14:50:50.147Z,1
2019-06-27T14:55:53.031Z,1
2019-06-27T15:00:56.002Z,2
2019-06-27T15:06:00.320Z,2
2019-06-27T15:10:59.818Z,1
2019-06-27T15:16:11.592Z,2
2019-06-27T15:21:04.633Z,2
2019-06-27T15:26:07.125Z,3
2019-06-27T15:31:09.589Z,1
2019-06-27T15:36:12.016Z,1
2019-06-27T15:51:19.407Z,1
2019-06-27T15:56:21.859Z,1
2019-06-27T16:01:24.413Z,1
2019-06-27T16:06:26.805Z,1
2019-06-27T16:11:29.312Z,1
2019-06-27T16:16:31.689Z,1
2019-06-27T16:21:34.154Z,1
2019-06-27T16:26:36.816Z,1
2019-06-27T16:31:39.091Z,1
2019-06-27T16:36:41.575Z,1
2019-06-27T16:41:43.996Z,1
2019-06-27T16:46:46.453Z,1
2019-06-27T16:51:48.957Z,1
2019-06-27T16:56:51.458Z,1
2019-06-27T17:01:53.833Z,1
2019-06-27T17:06:56.294Z,1
2019-06-27T17:11:58.775Z,1
2019-06-27T17:17:01.343Z,13
2019-06-27T17:22:03.731Z,6
2019-06-27T17:27:06.583Z,2
2019-06-27T17:32:08.596Z,31
2019-06-27T17:37:11.027Z,13
2019-06-27T17:42:13.488Z,7
2019-06-27T17:47:15.960Z,9
2019-06-27T17:52:18.407Z,2
2019-06-27T17:57:21.156Z,2
2019-06-27T18:02:23.888Z,1
2019-06-27T18:07:25.981Z,1
2019-06-27T18:12:28.419Z,2
2019-06-27T18:17:33.789Z,1
2019-06-27T18:22:33.156Z,1
2019-06-27T18:27:35.632Z,1
2019-06-27T18:32:38.127Z,1
2019-06-27T18:37:40.578Z,1
2019-06-27T18:42:43.035Z,1
2019-06-27T18:47:45.473Z,1
2019-06-27T19:12:57.784Z,2
2019-06-27T19:18:00.512Z,2
2019-06-27T19:23:02.699Z,2
2019-06-27T19:28:05.190Z,2
2019-06-27T19:33:07.589Z,2
2019-06-27T19:38:10.063Z,2
2019-06-27T19:43:26.506Z,2
2019-06-27T19:48:15.173Z,2
2019-06-27T19:53:17.451Z,2
2019-06-27T20:03:22.388Z,3
2019-06-27T20:08:24.892Z,3
2019-06-27T20:13:27.272Z,2
2019-06-27T20:18:29.711Z,2
2019-06-27T20:23:32.221Z,2
2019-06-27T20:28:34.763Z,2
2019-06-27T20:33:37.168Z,2
2019-06-27T20:38:39.578Z,2
2019-06-27T20:43:42.150Z,2
2019-06-27T20:48:44.539Z,2
2019-06-27T20:53:46.944Z,3
2019-06-27T20:58:49.379Z,3
2019-06-27T21:03:51.936Z,3
2019-06-27T21:08:54.463Z,3
2019-06-27T21:13:56.770Z,4
2019-06-27T21:18:59.611Z,3
2019-06-27T21:24:01.760Z,3
2019-06-27T21:29:04.268Z,4
2019-06-27T21:34:06.684Z,4
2019-06-27T21:39:09.055Z,4
2019-06-27T21:44:11.515Z,4
2019-06-27T21:49:14.133Z,4
2019-06-27T21:54:16.447Z,4
2019-06-27T22:04:21.379Z,4
2019-06-27T22:09:25.389Z,4
2019-06-27T22:14:26.268Z,3
2019-06-27T22:19:28.717Z,4
2019-06-27T22:24:31.227Z,4
2019-06-27T22:29:33.718Z,4
2019-06-27T22:34:36.118Z,4
2019-06-27T22:39:40.590Z,4
2019-06-27T22:44:41.003Z,4
2019-06-27T22:49:43.464Z,3
2019-06-27T22:54:45.919Z,4
2019-06-27T22:59:48.393Z,3
2019-06-27T23:04:50.837Z,3
2019-06-27T23:09:57.123Z,3
2019-06-27T23:14:55.911Z,4
2019-06-27T23:19:58.248Z,3
2019-06-27T23:25:02.104Z,3
2019-06-27T23:30:03.201Z,4
2019-06-27T23:35:05.581Z,3
2019-06-27T23:40:13.807Z,4
2019-06-27T23:45:10.511Z,4
2019-06-27T23:55:15.532Z,4
